Time;durP1;ratioP1;P1;durP2;ratioP2;P2;SDS_P1;SDS_P2;PMS_P1;PMS_P2;Temp;Humidity;BMP_temperature;BMP_pressure;BME280_temperature;BME280_humidity;BME280_pressure;Samples;Min_cycle;Max_cycle;Signal;HPM_P1;HPM_P2
2021/10/06 00:00:12;;;;;;;;;10.75;10.00;;;;;16.74;58.81;101788.09;146607;575;46021;-74
2021/10/06 00:02:46;;;;;;;;;10.75;10.75;;;;;16.75;58.71;101797.75;146603;599;46016;-74
2021/10/06 00:05:20;;;;;;;;;13.00;12.25;;;;;16.76;58.49;101801.28;146606;618;45020;-74
2021/10/06 00:07:54;;;;;;;;;12.25;11.75;;;;;16.77;58.42;101792.59;146603;608;46016;-74
2021/10/06 00:10:28;;;;;;;;;11.25;11.25;;;;;16.78;58.65;101797.91;146604;597;46008;-74
2021/10/06 00:13:02;;;;;;;;;13.50;11.25;;;;;16.75;58.83;101800.38;146603;570;47912;-74
2021/10/06 00:15:36;;;;;;;;;14.75;11.50;;;;;16.70;58.47;101790.50;146610;597;45022;-74
2021/10/06 00:18:09;;;;;;;;;11.25;11.25;;;;;16.61;58.74;101796.25;146605;587;46016;-74
2021/10/06 00:20:53;;;;;;;;;11.75;9.75;;;;;16.53;59.13;101795.00;146605;631;46010;-74
2021/10/06 00:23:28;;;;;;;;;14.25;11.75;;;;;16.45;58.96;101786.84;146603;634;46016;-74
2021/10/06 00:26:03;;;;;;;;;11.50;10.50;;;;;16.45;59.32;101785.91;146605;593;47008;-74
2021/10/06 00:28:37;;;;;;;;;11.00;10.00;;;;;16.42;59.24;101775.31;146602;654;46017;-74
2021/10/06 00:31:11;;;;;;;;;13.00;12.50;;;;;16.44;59.58;101779.78;146608;681;46008;-74
2021/10/06 00:33:45;;;;;;;;;11.00;10.00;;;;;16.42;59.37;101776.22;146602;604;46016;-78
2021/10/06 00:36:19;;;;;;;;;13.75;13.00;;;;;16.36;59.42;101766.38;146601;596;47008;-82
2021/10/06 00:38:56;;;;;;;;;14.00;12.25;;;;;16.28;59.15;101762.50;146602;669;46016;-80
2021/10/06 00:41:30;;;;;;;;;14.75;13.50;;;;;16.19;59.58;101763.81;146606;596;46020;-79
2021/10/06 00:44:04;;;;;;;;;16.75;14.25;;;;;16.11;59.83;101760.88;146603;670;46016;-84
2021/10/06 00:46:38;;;;;;;;;14.25;13.25;;;;;16.06;59.85;101763.25;146607;589;47006;-83
2021/10/06 00:49:12;;;;;;;;;14.00;12.00;;;;;16.05;59.77;101765.84;146601;589;47011;-83
2021/10/06 00:51:46;;;;;;;;;16.25;14.25;;;;;16.00;60.22;101757.75;146604;575;46021;-80
2021/10/06 00:54:20;;;;;;;;;14.50;12.75;;;;;15.97;60.08;101756.72;146602;589;47016;-73
2021/10/06 00:56:54;;;;;;;;;14.00;13.75;;;;;15.91;60.81;101744.25;146608;646;45021;-79
2021/10/06 00:59:28;;;;;;;;;13.50;12.75;;;;;15.80;61.38;101745.50;146603;593;46016;-79
2021/10/06 01:02:02;;;;;;;;;14.50;14.00;;;;;15.69;61.05;101738.03;146603;582;46020;-79
2021/10/06 01:04:46;;;;;;;;;17.25;11.25;;;;;15.60;61.30;101727.09;146606;641;46010;-78
2021/10/06 01:07:22;;;;;;;;;12.25;12.25;;;;;15.63;62.13;101728.97;146607;569;45023;-79
2021/10/06 01:09:56;;;;;;;;;12.75;12.75;;;;;15.59;62.56;101730.56;146602;571;46016;-71
2021/10/06 01:12:30;;;;;;;;;14.00;13.50;;;;;15.54;62.97;101726.81;146605;732;46021;-72
2021/10/06 01:15:08;;;;;;;;;11.25;11.25;;;;;15.50;62.53;101724.00;146603;584;46016;-72
2021/10/06 01:17:42;;;;;;;;;16.50;13.75;;;;;15.50;62.72;101716.16;146606;593;46020;-71
2021/10/06 01:20:17;;;;;;;;;15.50;13.50;;;;;15.46;62.01;101708.19;146604;623;46010;-72
2021/10/06 01:22:51;;;;;;;;;15.50;12.50;;;;;15.46;61.77;101716.03;146604;621;46008;-74
2021/10/06 01:25:25;;;;;;;;;13.25;12.00;;;;;15.53;61.87;101711.09;146603;603;46016;-72
2021/10/06 01:27:59;;;;;;;;;13.00;12.00;;;;;15.60;61.57;101700.97;146605;570;46023;-72
2021/10/06 01:30:35;;;;;;;;;13.25;13.25;;;;;15.68;61.84;101714.44;146600;575;46016;-72
2021/10/06 01:33:09;;;;;;;;;15.75;13.50;;;;;15.73;61.39;101728.59;146601;559;47008;-72
2021/10/06 01:35:43;;;;;;;;;14.25;14.25;;;;;15.78;61.10;101721.87;146604;594;46017;-72
2021/10/06 01:38:17;;;;;;;;;15.00;13.50;;;;;15.85;61.24;101728.28;146606;604;46020;-72
2021/10/06 01:40:51;;;;;;;;;16.75;13.00;;;;;15.85;61.71;101718.72;146604;632;46028;-72
2021/10/06 01:43:25;;;;;;;;;17.00;15.00;;;;;15.88;61.83;101728.41;146604;566;47008;-72
2021/10/06 01:45:59;;;;;;;;;15.25;13.50;;;;;15.82;62.05;101718.56;146605;743;46012;-72
2021/10/06 01:48:33;;;;;;;;;17.00;14.50;;;;;15.75;62.29;101721.75;146607;603;46010;-72
2021/10/06 01:51:07;;;;;;;;;15.00;15.00;;;;;15.65;62.57;101719.50;146602;573;46016;-72
2021/10/06 01:53:43;;;;;;;;;16.75;14.00;;;;;15.50;63.37;101711.81;146601;578;46020;-75
2021/10/06 01:56:17;;;;;;;;;14.50;13.25;;;;;15.42;62.81;101711.47;146602;621;46017;-75
2021/10/06 01:58:52;;;;;;;;;18.25;16.00;;;;;15.38;63.26;101725.19;146603;692;47008;-75
2021/10/06 02:01:26;;;;;;;;;14.50;13.00;;;;;15.34;64.05;101723.28;146600;599;47010;-75
2021/10/06 02:04:00;;;;;;;;;14.50;12.75;;;;;15.30;64.27;101717.84;146605;623;46010;-76
2021/10/06 02:06:34;;;;;;;;;16.75;15.00;;;;;15.24;63.38;101716.72;146603;671;46016;-77
2021/10/06 02:09:09;;;;;;;;;18.00;15.50;;;;;15.23;63.78;101722.78;146607;672;46020;-75
2021/10/06 02:11:43;;;;;;;;;16.00;15.00;;;;;15.20;63.61;101714.78;146606;595;46016;-76
2021/10/06 02:14:17;;;;;;;;;13.50;12.25;;;;;15.20;63.21;101721.72;146606;663;46008;-80
2021/10/06 02:16:51;;;;;;;;;16.25;15.50;;;;;15.22;63.27;101728.81;146604;565;46016;-74
2021/10/06 02:19:25;;;;;;;;;17.25;16.75;;;;;15.23;62.80;101729.69;146605;585;46025;-71
2021/10/06 02:21:59;;;;;;;;;18.50;17.50;;;;;15.24;62.50;101727.16;146602;563;46016;-73
2021/10/06 02:24:33;;;;;;;;;14.50;14.50;;;;;15.25;63.19;101718.50;146606;593;46008;-72
2021/10/06 02:27:06;;;;;;;;;17.00;15.75;;;;;15.24;62.99;101721.94;146604;579;46016;-70
2021/10/06 02:29:40;;;;;;;;;18.00;16.25;;;;;15.18;62.92;101731.22;146606;593;46020;-73
2021/10/06 02:32:14;;;;;;;;;18.75;18.00;;;;;15.11;63.25;101730.03;146601;570;46016;-73
2021/10/06 02:34:48;;;;;;;;;15.50;15.50;;;;;15.08;62.80;101726.34;146604;598;46020;-75
2021/10/06 02:38:13;;;;;;;;;16.50;15.50;;;;;15.07;62.20;101730.66;146603;590;46016;-73
2021/10/06 02:40:47;;;;;;;;;20.50;18.00;;;;;15.10;62.17;101735.16;146604;564;46020;-79
2021/10/06 02:43:21;;;;;;;;;16.25;15.25;;;;;15.10;62.28;101738.66;146605;685;46029;-76
2021/10/06 02:45:55;;;;;;;;;18.75;17.00;;;;;15.12;62.35;101728.28;146602;569;46020;-75
2021/10/06 02:48:29;;;;;;;;;22.00;19.00;;;;;15.14;62.32;101731.84;146606;587;45043;-73
2021/10/06 02:51:02;;;;;;;;;22.50;18.25;;;;;15.14;62.22;101721.41;146606;576;46008;-72
2021/10/06 02:53:36;;;;;;;;;16.50;15.75;;;;;15.15;61.98;101728.44;146601;628;47020;-73
2021/10/06 02:56:10;;;;;;;;;17.75;16.75;;;;;15.21;61.85;101728.75;146605;656;46021;-70
2021/10/06 02:58:44;;;;;;;;;19.00;18.25;;;;;15.24;61.83;101718.44;146606;604;46010;-72
2021/10/06 03:01:18;;;;;;;;;16.50;15.75;;;;;15.34;61.62;101723.28;146608;576;46020;-72
2021/10/06 03:03:52;;;;;;;;;16.00;14.75;;;;;15.43;61.13;101714.97;146604;718;46017;-72
2021/10/06 03:06:26;;;;;;;;;20.75;17.75;;;;;15.46;61.30;101705.56;146605;651;46020;-72
2021/10/06 03:09:00;;;;;;;;;24.25;19.75;;;;;15.48;61.46;101714.38;146603;705;47010;-72
2021/10/06 03:11:34;;;;;;;;;18.50;17.75;;;;;15.48;61.33;101714.38;146602;622;46021;-72
2021/10/06 03:14:08;;;;;;;;;20.25;18.00;;;;;15.50;61.35;101716.16;146605;565;46016;-72
2021/10/06 03:16:42;;;;;;;;;18.75;17.00;;;;;15.50;61.31;101718.78;146603;600;46020;-72
2021/10/06 03:19:16;;;;;;;;;19.50;16.75;;;;;15.53;61.57;101718.94;146601;577;47908;-72
2021/10/06 03:21:49;;;;;;;;;18.50;16.75;;;;;15.54;61.43;101718.09;146607;691;46020;-72
2021/10/06 03:24:23;;;;;;;;;17.00;16.00;;;;;15.54;61.48;101725.94;146602;581;46016;-72
2021/10/06 03:26:57;;;;;;;;;18.50;17.75;;;;;15.54;61.56;101732.03;146605;643;46021;-72
2021/10/06 03:29:31;;;;;;;;;21.00;19.50;;;;;15.53;62.14;101727.66;146604;589;46010;-77
2021/10/06 03:32:05;;;;;;;;;22.25;17.25;;;;;15.47;62.34;101715.19;146607;577;46021;-76
2021/10/06 03:34:39;;;;;;;;;21.25;21.25;;;;;15.44;62.42;101717.66;146602;717;46017;-77
2021/10/06 03:37:15;;;;;;;;;22.00;21.25;;;;;15.40;62.48;101709.62;146602;628;46032;-78
2021/10/06 03:39:49;;;;;;;;;19.75;19.00;;;;;15.32;62.82;101718.78;146598;597;46016;-77
2021/10/06 03:42:23;;;;;;;;;21.00;18.75;;;;;15.26;62.80;101706.31;146605;607;46020;-77
2021/10/06 03:44:57;;;;;;;;;20.00;19.00;;;;;15.25;63.20;101709.78;146606;608;46016;-71
2021/10/06 03:47:31;;;;;;;;;19.75;17.75;;;;;15.19;63.36;101706.88;146605;565;46008;-73
2021/10/06 03:50:05;;;;;;;;;20.50;20.00;;;;;15.14;63.50;101708.34;146603;635;46016;-71
2021/10/06 03:52:39;;;;;;;;;20.75;19.25;;;;;15.12;63.13;101710.91;146608;598;45022;-73
2021/10/06 03:55:15;;;;;;;;;22.50;20.75;;;;;15.12;63.32;101712.63;146603;628;47010;-73
2021/10/06 03:57:49;;;;;;;;;18.00;15.75;;;;;15.10;64.18;101711.63;146605;577;46020;-73
2021/10/06 04:00:23;;;;;;;;;22.50;19.75;;;;;15.03;63.26;101710.44;146604;625;46010;-73
2021/10/06 04:02:57;;;;;;;;;22.50;21.25;;;;;15.02;63.33;101711.28;146603;601;46021;-70
2021/10/06 04:05:30;;;;;;;;;25.50;23.00;;;;;15.03;62.98;101713.06;146604;587;46020;-70
2021/10/06 04:08:04;;;;;;;;;22.00;22.00;;;;;15.08;63.22;101722.03;146604;579;47008;-71
2021/10/06 04:10:39;;;;;;;;;19.75;18.50;;;;;15.12;63.34;101720.47;146601;634;46017;-72
2021/10/06 04:13:23;;;;;;;;;23.50;20.00;;;;;15.10;62.56;101715.16;146605;607;46010;-72
2021/10/06 04:15:57;;;;;;;;;19.00;18.00;;;;;15.08;62.73;101710.66;146603;579;46016;-73
2021/10/06 04:18:31;;;;;;;;;20.00;20.00;;;;;15.10;63.70;101717.75;146605;590;46008;-72
2021/10/06 04:21:05;;;;;;;;;25.75;23.75;;;;;14.29;63.23;101573.66;146602;591;46027;-73
2021/10/06 04:23:39;;;;;;;;;25.00;21.50;;;;;14.13;62.95;101552.84;146603;590;47008;-73
2021/10/06 04:26:13;;;;;;;;;22.00;21.25;;;;;15.06;63.63;101726.28;146605;700;47010;-73
2021/10/06 04:28:47;;;;;;;;;19.50;18.75;;;;;15.09;63.10;101717.69;146600;567;46020;-73
2021/10/06 04:31:21;;;;;;;;;24.50;22.75;;;;;15.11;64.07;101713.41;146605;636;47010;-73
2021/10/06 04:33:55;;;;;;;;;25.00;23.00;;;;;15.13;63.64;101722.25;146606;649;46023;-73
2021/10/06 04:36:29;;;;;;;;;19.75;18.25;;;;;15.15;64.29;101720.59;146602;566;46016;-75
2021/10/06 04:39:03;;;;;;;;;18.75;17.25;;;;;15.17;63.63;101727.72;146599;583;47010;-75
2021/10/06 04:41:36;;;;;;;;;22.00;20.25;;;;;15.19;63.62;101728.66;146603;632;46010;-81
2021/10/06 04:44:11;;;;;;;;;25.50;22.50;;;;;15.24;63.81;101728.91;146609;602;45022;-83
2021/10/06 04:46:47;;;;;;;;;23.00;20.50;;;;;15.31;64.75;101730.97;146606;607;46016;-81
2021/10/06 04:49:21;;;;;;;;;24.00;22.50;;;;;15.36;64.20;101731.22;146604;574;46021;-81
2021/10/06 04:51:55;;;;;;;;;25.25;23.00;;;;;15.38;63.32;101729.53;146608;564;45020;-84
2021/10/06 04:54:29;;;;;;;;;19.50;18.75;;;;;15.45;63.46;101736.84;146602;609;46021;-81
2021/10/06 04:57:02;;;;;;;;;22.25;18.75;;;;;15.48;63.12;101719.62;146601;576;47907;-76
2021/10/06 04:59:36;;;;;;;;;26.75;22.75;;;;;15.61;63.29;101730.66;146606;566;46020;-70
2021/10/06 05:02:10;;;;;;;;;25.00;21.75;;;;;15.69;62.75;101729.28;146602;615;47010;-71
2021/10/06 05:04:44;;;;;;;;;23.25;20.75;;;;;15.75;62.94;101732.19;146606;591;46020;-69
2021/10/06 05:07:18;;;;;;;;;22.00;20.25;;;;;14.93;62.65;101577.66;146602;659;47020;-71
2021/10/06 05:09:52;;;;;;;;;19.00;18.75;;;;;15.89;62.46;101730.22;146605;579;47009;-70
2021/10/06 05:12:26;;;;;;;;;19.50;16.50;;;;;15.97;62.64;101730.56;146602;565;46012;-71
2021/10/06 05:15:00;;;;;;;;;22.75;20.50;;;;;16.05;62.78;101731.81;146605;626;47008;-71
2021/10/06 05:17:34;;;;;;;;;21.00;19.75;;;;;16.08;63.00;101734.56;146602;564;47010;-70
2021/10/06 05:20:08;;;;;;;;;20.25;19.75;;;;;16.10;62.27;101733.78;146603;575;45020;-71
2021/10/06 05:22:48;;;;;;;;;21.75;17.00;;;;;16.14;61.94;101734.84;146602;700;46016;-71
2021/10/06 05:25:23;;;;;;;;;23.25;18.00;;;;;16.19;61.76;101737.66;146606;577;46008;-73
2021/10/06 05:27:57;;;;;;;;;23.25;21.25;;;;;16.24;61.70;101725.69;146604;738;46010;-72
2021/10/06 05:30:31;;;;;;;;;25.50;22.50;;;;;16.30;61.78;101734.69;146605;603;46030;-78
2021/10/06 05:33:08;;;;;;;;;26.75;23.50;;;;;16.38;62.10;101732.41;146603;578;46016;-77
2021/10/06 05:35:42;;;;;;;;;25.25;23.00;;;;;16.47;62.55;101734.53;146606;577;46020;-77
2021/10/06 05:38:16;;;;;;;;;20.75;20.00;;;;;16.56;62.32;101737.53;146603;590;46017;-77
2021/10/06 05:40:50;;;;;;;;;23.00;21.00;;;;;16.62;62.53;101740.44;146606;582;46010;-75
2021/10/06 05:43:24;;;;;;;;;22.75;21.75;;;;;16.69;61.97;101731.09;146601;588;46016;-76
2021/10/06 05:45:58;;;;;;;;;21.25;20.25;;;;;16.75;61.72;101737.53;146603;587;46020;-76
2021/10/06 05:48:32;;;;;;;;;22.50;18.50;;;;;16.82;61.94;101738.66;146603;663;46016;-76
2021/10/06 05:51:26;;;;;;;;;21.25;20.00;;;;;16.88;61.55;101733.69;146605;656;46020;-76
2021/10/06 05:54:00;;;;;;;;;19.25;18.75;;;;;16.96;61.66;101734.91;146601;583;46031;-78
2021/10/06 05:56:34;;;;;;;;;22.00;19.75;;;;;16.96;61.61;101737.53;146604;608;46020;-77
2021/10/06 05:59:08;;;;;;;;;25.00;22.00;;;;;17.05;62.22;101731.78;146604;581;46010;-73
2021/10/06 06:01:43;;;;;;;;;20.75;20.75;;;;;17.09;61.96;101731.06;146607;566;46010;-72
2021/10/06 06:04:17;;;;;;;;;27.00;21.75;;;;;17.14;61.44;101736.50;146604;730;46016;-73
2021/10/06 06:06:51;;;;;;;;;22.25;21.50;;;;;17.15;61.46;101739.19;146607;566;46020;-72
2021/10/06 06:09:25;;;;;;;;;28.00;26.75;;;;;17.21;61.40;101735.91;146604;573;46019;-72
2021/10/06 06:12:00;;;;;;;;;26.00;24.00;;;;;17.25;61.31;101743.06;146605;595;46008;-72
2021/10/06 06:14:36;;;;;;;;;29.00;27.75;;;;;17.29;61.46;101745.00;146600;563;46016;-72
2021/10/06 06:17:10;;;;;;;;;28.00;25.00;;;;;17.30;61.40;101742.41;146607;586;46008;-73
2021/10/06 06:19:44;;;;;;;;;28.00;24.25;;;;;17.35;61.33;101750.44;146602;667;47908;-73
2021/10/06 06:22:18;;;;;;;;;28.25;27.25;;;;;17.38;61.21;101754.94;146606;589;46020;-73
2021/10/06 06:24:52;;;;;;;;;31.50;27.50;;;;;17.40;61.37;101755.91;146602;612;46016;-89
2021/10/06 06:27:26;;;;;;;;;28.25;26.00;;;;;17.41;60.87;101763.81;146606;673;46020;-86
2021/10/06 06:30:00;;;;;;;;;28.00;26.50;;;;;17.43;60.57;101770.00;146603;571;46016;-72
2021/10/06 06:32:34;;;;;;;;;26.25;23.25;;;;;17.43;60.61;101767.41;146605;588;47008;-73
2021/10/06 06:35:09;;;;;;;;;25.75;24.00;;;;;17.43;60.37;101767.41;146605;610;46010;-72
2021/10/06 06:37:44;;;;;;;;;27.00;26.00;;;;;17.45;61.00;101765.75;146605;569;46008;-72
2021/10/06 06:40:18;;;;;;;;;30.25;26.75;;;;;17.49;61.19;101767.62;146606;583;46010;-77
2021/10/06 06:42:52;;;;;;;;;30.75;27.75;;;;;17.53;60.91;101768.66;146606;748;46020;-78
2021/10/06 06:45:26;;;;;;;;;27.75;25.50;;;;;17.56;60.73;101779.25;146605;592;46016;-78
2021/10/06 06:48:00;;;;;;;;;25.25;23.00;;;;;17.55;60.66;101775.75;146607;563;46026;-79
2021/10/06 06:50:34;;;;;;;;;29.50;25.50;;;;;17.58;60.64;101779.34;146604;627;46016;-78
2021/10/06 06:53:08;;;;;;;;;28.00;22.50;;;;;17.55;60.64;101767.88;146605;659;46020;-78
2021/10/06 06:55:42;;;;;;;;;26.50;24.75;;;;;17.58;61.50;101764.50;146603;583;46016;-79
2021/10/06 06:58:17;;;;;;;;;24.25;23.50;;;;;17.62;60.83;101768.13;146605;659;46020;-79
2021/10/06 07:00:51;;;;;;;;;31.00;25.25;;;;;17.66;61.60;101770.03;146603;587;46017;-78
2021/10/06 07:03:25;;;;;;;;;44.75;35.00;;;;;17.71;61.25;101773.72;146604;707;46020;-79
2021/10/06 07:05:59;;;;;;;;;27.75;25.00;;;;;17.74;61.17;101774.75;146603;629;46016;-78
2021/10/06 07:08:33;;;;;;;;;20.00;19.75;;;;;17.78;61.21;101767.91;146607;626;45021;-79
2021/10/06 07:11:07;;;;;;;;;30.75;28.50;;;;;17.83;61.43;101763.75;146601;644;47010;-79
2021/10/06 07:13:40;;;;;;;;;27.50;23.75;;;;;17.88;61.99;101769.16;146607;606;46008;-79
2021/10/06 07:16:14;;;;;;;;;35.00;30.75;;;;;17.93;61.04;101771.12;146603;581;46031;-77
2021/10/06 07:18:48;;;;;;;;;13.50;12.00;;;;;17.97;63.54;101774.75;146603;566;46020;-78
2021/10/06 07:21:22;;;;;;;;;11.50;10.50;;;;;18.00;64.92;101774.88;146601;598;46016;-78
2021/10/06 07:23:56;;;;;;;;;22.00;21.00;;;;;18.00;63.76;101777.50;146610;687;46008;-82
2021/10/06 07:26:30;;;;;;;;;12.50;10.25;;;;;17.08;65.68;101634.94;146605;576;47010;-81
2021/10/06 07:29:04;;;;;;;;;11.50;11.50;;;;;17.98;64.96;101779.19;146600;610;47006;-84
2021/10/06 07:31:38;;;;;;;;;13.00;11.25;;;;;17.94;65.43;101777.25;146603;563;46030;-83
2021/10/06 07:34:13;;;;;;;;;13.00;13.00;;;;;17.90;67.23;101778.00;146606;563;47010;-83
2021/10/06 07:36:47;;;;;;;;;16.25;12.25;;;;;17.91;64.57;101777.13;146601;606;46017;-83
2021/10/06 07:39:21;;;;;;;;;14.50;14.00;;;;;17.93;64.90;101768.50;146607;589;46020;-82
2021/10/06 07:41:56;;;;;;;;;17.25;14.75;;;;;17.95;64.56;101776.44;146603;643;47010;-81
2021/10/06 07:44:30;;;;;;;;;14.00;13.00;;;;;17.99;65.00;101767.84;146607;630;46020;-83
2021/10/06 07:47:04;;;;;;;;;13.75;13.25;;;;;17.99;65.04;101771.34;146604;600;46010;-83
2021/10/06 07:49:38;;;;;;;;;9.50;9.25;;;;;18.00;64.09;101770.50;146608;649;47008;-82
2021/10/06 07:52:13;;;;;;;;;12.25;11.25;;;;;17.99;64.65;101768.72;146602;575;47010;-82
2021/10/06 07:54:47;;;;;;;;;15.00;13.50;;;;;18.02;65.35;101772.31;146608;652;46008;-81
2021/10/06 07:57:21;;;;;;;;;11.25;11.25;;;;;18.05;63.99;101775.06;146601;694;47010;-81
2021/10/06 07:59:55;;;;;;;;;14.25;12.25;;;;;18.09;64.87;101776.94;146606;593;46908;-82
2021/10/06 08:02:29;;;;;;;;;11.50;9.25;;;;;17.07;63.51;101597.38;146604;658;46016;-82
2021/10/06 08:05:04;;;;;;;;;11.00;10.50;;;;;18.13;64.24;101773.59;146608;638;45020;-82
2021/10/06 08:07:39;;;;;;;;;10.50;10.50;;;;;18.12;63.76;101777.94;146603;590;46016;-81
2021/10/06 08:10:13;;;;;;;;;14.00;12.25;;;;;18.14;63.06;101778.03;146607;584;46008;-81
2021/10/06 08:12:47;;;;;;;;;16.50;13.50;;;;;18.17;63.06;101773.78;146603;590;46016;-79
2021/10/06 08:15:21;;;;;;;;;14.00;12.25;;;;;18.20;63.80;101768.63;146605;603;46010;-80
2021/10/06 08:17:55;;;;;;;;;11.75;9.50;;;;;18.22;62.77;101766.06;146606;613;46010;-81
2021/10/06 08:20:33;;;;;;;;;16.50;12.50;;;;;18.26;62.85;101774.97;146606;592;46908;-80
2021/10/06 08:23:30;;;;;;;;;15.50;14.50;;;;;18.29;62.54;101767.19;146608;572;46017;-81
2021/10/06 08:26:28;;;;;;;;;15.75;14.00;;;;;18.33;62.03;101764.72;146614;569;45020;-81
2021/10/06 08:29:03;;;;;;;;;14.75;13.50;;;;;18.35;62.95;101762.13;146613;573;46010;-80
2021/10/06 08:31:37;;;;;;;;;25.25;20.25;;;;;18.38;62.72;101773.69;146610;583;46020;-77
2021/10/06 08:34:11;;;;;;;;;42.25;33.00;;;;;18.40;62.50;101765.84;146606;651;46016;-78
2021/10/06 08:36:45;;;;;;;;;62.50;46.75;;;;;18.42;62.07;101770.31;146614;583;46008;-77
2021/10/06 08:39:19;;;;;;;;;60.25;45.75;;;;;18.49;61.60;101781.03;146608;595;46909;-77
2021/10/06 08:41:53;;;;;;;;;22.25;17.25;;;;;17.53;61.54;101600.81;146610;571;46020;-78
2021/10/06 08:44:35;;;;;;;;;62.50;48.00;;;;;18.59;60.89;101773.53;146606;614;46017;-77
2021/10/06 08:47:10;;;;;;;;;55.50;44.50;;;;;18.64;61.39;101761.44;146612;582;46010;-77
2021/10/06 08:49:44;;;;;;;;;52.50;43.00;;;;;18.78;61.65;101758.44;146608;770;46016;-77
2021/10/06 08:52:18;;;;;;;;;46.25;37.50;;;;;18.94;60.83;101752.88;146612;574;46908;-77
2021/10/06 08:54:52;;;;;;;;;46.00;36.50;;;;;19.11;60.65;101753.41;146611;618;47910;-78
2021/10/06 08:57:25;;;;;;;;;42.25;33.75;;;;;19.28;60.40;101762.75;146612;777;45021;-78
2021/10/06 08:59:59;;;;;;;;;34.25;32.25;;;;;19.42;59.39;101762.31;146611;590;46010;-78
2021/10/06 09:02:46;;;;;;;;;30.25;28.25;;;;;19.52;59.19;101767.00;146608;587;45020;-78
2021/10/06 09:05:26;;;;;;;;;15.50;14.00;;;;;19.58;58.33;101768.06;146614;590;46010;-79
2021/10/06 09:08:04;;;;;;;;;23.25;22.75;;;;;19.58;58.72;101751.41;146608;594;46020;-78
2021/10/06 09:10:40;;;;;;;;;22.75;21.50;;;;;19.64;58.63;101754.25;146606;603;46010;-79
2021/10/06 09:13:14;;;;;;;;;15.00;14.50;;;;;19.70;58.06;101764.97;146605;583;46012;-77
2021/10/06 09:15:52;;;;;;;;;25.50;21.75;;;;;19.71;58.45;101756.22;146605;626;46016;-77
2021/10/06 09:18:28;;;;;;;;;21.25;17.75;;;;;19.76;58.06;101767.78;146608;581;45907;-78
2021/10/06 09:21:13;;;;;;;;;18.50;16.25;;;;;19.78;57.75;101767.81;146610;609;46016;-77
2021/10/06 09:23:47;;;;;;;;;12.00;10.50;;;;;19.74;57.43;101761.56;146618;586;45020;-78
2021/10/06 09:26:21;;;;;;;;;13.25;10.25;;;;;19.71;56.86;101758.84;146612;597;46017;-85
2021/10/06 09:28:59;;;;;;;;;13.00;11.25;;;;;19.66;57.76;101749.03;146616;631;46020;-88
2021/10/06 09:31:33;;;;;;;;;14.25;13.00;;;;;19.65;57.80;101756.03;146610;594;46016;-86
2021/10/06 09:34:12;;;;;;;;;15.75;12.25;;;;;19.66;58.41;101752.56;146616;648;45020;-86
2021/10/06 09:36:46;;;;;;;;;12.00;12.00;;;;;19.68;58.53;101755.25;146613;625;46017;-85
2021/10/06 09:39:20;;;;;;;;;13.75;13.00;;;;;19.71;58.54;101757.97;146612;567;45022;-86
2021/10/06 09:41:54;;;;;;;;;12.00;11.25;;;;;19.74;58.56;101747.53;146608;578;46016;-86
2021/10/06 09:44:28;;;;;;;;;14.25;10.50;;;;;19.78;58.22;101741.50;146610;595;46021;-86
2021/10/06 09:47:04;;;;;;;;;13.00;12.00;;;;;19.75;57.74;101734.44;146611;563;46016;-88
2021/10/06 09:49:42;;;;;;;;;8.50;8.50;;;;;19.78;57.67;101750.31;146615;573;46020;-87
2021/10/06 09:52:37;;;;;;;;;10.75;9.75;;;;;19.75;57.32;101750.22;146611;641;47019;-87
2021/10/06 09:55:11;;;;;;;;;13.75;12.00;;;;;19.72;57.64;101744.88;146613;571;46010;-88
2021/10/06 09:57:46;;;;;;;;;15.00;12.75;;;;;19.69;57.52;101747.41;146611;575;47020;-89
2021/10/06 10:00:22;;;;;;;;;11.25;10.75;;;;;19.66;57.77;101743.75;146604;572;46020;-88
2021/10/06 10:02:58;;;;;;;;;10.25;10.25;;;;;19.65;58.03;101750.78;146615;588;45020;-87
2021/10/06 10:05:33;;;;;;;;;16.25;12.50;;;;;19.65;57.87;101745.50;146602;569;46021;-87
2021/10/06 10:08:09;;;;;;;;;15.00;11.50;;;;;19.68;58.07;101747.34;146607;589;46010;-86
2021/10/06 10:10:43;;;;;;;;;14.00;12.75;;;;;19.73;58.09;101753.66;146608;630;46020;-86
2021/10/06 10:13:18;;;;;;;;;12.50;12.25;;;;;19.79;57.97;101738.94;146613;606;46010;-86
2021/10/06 10:15:52;;;;;;;;;13.50;12.00;;;;;19.88;57.89;101734.81;146615;591;46008;-85
2021/10/06 10:18:26;;;;;;;;;13.25;12.25;;;;;19.96;57.56;101728.87;146616;580;46020;-86
2021/10/06 10:21:02;;;;;;;;;14.50;13.50;;;;;20.02;57.49;101731.69;146612;631;46021;-86
2021/10/06 10:23:36;;;;;;;;;10.50;10.50;;;;;20.07;57.17;101731.84;146614;592;46016;-84
2021/10/06 10:26:11;;;;;;;;;13.00;12.00;;;;;20.06;57.25;101728.31;146611;706;46008;-88
2021/10/06 10:28:45;;;;;;;;;15.75;12.25;;;;;20.06;56.91;101733.59;146611;597;46016;-87
2021/10/06 10:31:22;;;;;;;;;11.75;10.00;;;;;20.07;56.46;101734.47;146612;614;46020;-86
2021/10/06 10:33:56;;;;;;;;;15.50;11.75;;;;;20.05;56.59;101736.16;146616;570;46016;-86
2021/10/06 10:36:56;;;;;;;;;14.00;14.00;;;;;20.05;56.80;101731.78;146608;632;46021;-89
2021/10/06 10:39:54;;;;;;;;;13.00;11.25;;;;;19.08;56.60;101548.28;146613;680;46016;-86
2021/10/06 10:43:00;;;;;;;;;12.25;11.25;;;;;19.13;56.55;101549.31;146614;637;45021;-87
2021/10/06 10:45:53;;;;;;;;;13.75;12.50;;;;;20.16;56.17;101716.31;146611;565;46016;-88
2021/10/06 10:48:32;;;;;;;;;13.50;13.50;;;;;20.16;56.32;101710.16;146613;628;46020;-85
2021/10/06 10:51:11;;;;;;;;;11.25;11.25;;;;;20.14;56.45;101703.94;146615;573;46010;-85
2021/10/06 10:54:01;;;;;;;;;15.25;15.25;;;;;20.17;56.74;101697.00;146614;661;46020;-86
2021/10/06 10:56:49;;;;;;;;;13.00;11.00;;;;;20.26;56.17;101694.63;146611;581;46016;-86
2021/10/06 10:59:26;;;;;;;;;16.00;15.50;;;;;20.40;56.59;101684.44;146606;590;46020;-87
2021/10/06 11:02:02;;;;;;;;;11.75;10.75;;;;;20.56;56.01;101690.16;146614;626;46016;-86
2021/10/06 11:04:39;;;;;;;;;14.25;11.75;;;;;20.76;55.38;101683.66;146615;608;45026;-89
2021/10/06 11:07:24;;;;;;;;;14.25;11.50;;;;;20.97;54.72;101680.66;146612;580;46016;-88
2021/10/06 11:10:03;;;;;;;;;12.75;12.00;;;;;21.18;55.27;101678.53;146617;575;45020;-88
2021/10/06 11:12:41;;;;;;;;;14.25;12.00;;;;;21.47;54.30;101669.50;146612;585;46020;-83
2021/10/06 11:15:33;;;;;;;;;13.50;12.50;;;;;21.75;53.48;101671.88;146607;616;46020;-82
2021/10/06 11:18:19;;;;;;;;;20.75;18.00;;;;;21.95;53.23;101674.00;146602;604;47018;-85
2021/10/06 11:21:00;;;;;;;;;17.00;15.50;;;;;22.11;52.48;101666.41;146610;600;46020;-84
2021/10/06 11:23:45;;;;;;;;;30.00;28.00;;;;;22.25;52.16;101666.72;146608;577;45020;-85
2021/10/06 11:26:34;;;;;;;;;15.25;13.00;;;;;22.33;51.39;101645.69;146612;570;46021;-82
2021/10/06 11:29:10;;;;;;;;;11.00;11.00;;;;;22.39;51.36;101644.91;146610;633;46016;-82
2021/10/06 11:31:44;;;;;;;;;15.50;14.50;;;;;22.44;51.16;101646.78;146610;563;45020;-82
2021/10/06 11:34:23;;;;;;;;;10.25;9.50;;;;;22.49;51.30;101639.84;146613;676;46010;-84
2021/10/06 11:36:58;;;;;;;;;15.25;13.50;;;;;22.60;51.91;101630.31;146609;564;46020;-83
2021/10/06 11:39:32;;;;;;;;;15.25;14.00;;;;;22.90;50.23;101625.50;146610;612;46016;-82
2021/10/06 11:42:06;;;;;;;;;25.50;20.00;;;;;23.18;50.43;101624.16;146615;574;45023;-83
2021/10/06 11:44:41;;;;;;;;;15.00;15.00;;;;;23.44;50.61;101616.56;146606;704;46016;-83
2021/10/06 11:47:21;;;;;;;;;12.00;9.75;;;;;23.65;48.52;101616.81;146614;578;46020;-84